sensor_id;sensor_type;location;lat;lon;timestamp;pressure;altitude;pressure_sealevel;temperature;humidity
56992;BME280;42885;49.754;18.636;2022-07-23T00:01:38;98367.05;;;20.36;100.00
56992;BME280;42885;49.754;18.636;2022-07-23T00:04:29;98366.97;;;20.24;100.00
56992;BME280;42885;49.754;18.636;2022-07-23T00:07:18;98358.80;;;20.03;100.00
56992;BME280;42885;49.754;18.636;2022-07-23T00:10:08;98362.77;;;20.03;100.00
56992;BME280;42885;49.754;18.636;2022-07-23T00:12:58;98361.96;;;20.03;100.00
56992;BME280;42885;49.754;18.636;2022-07-23T00:15:47;98372.64;;;19.79;100.00
56992;BME280;42885;49.754;18.636;2022-07-23T00:18:36;98376.70;;;19.87;100.00
56992;BME280;42885;49.754;18.636;2022-07-23T00:21:25;98379.19;;;19.71;100.00
56992;BME280;42885;49.754;18.636;2022-07-23T00:24:14;98375.83;;;19.83;100.00
56992;BME280;42885;49.754;18.636;2022-07-23T00:27:03;98382.90;;;19.92;100.00
56992;BME280;42885;49.754;18.636;2022-07-23T00:29:53;98376.64;;;19.65;100.00
56992;BME280;42885;49.754;18.636;2022-07-23T00:32:54;98378.06;;;19.73;100.00
56992;BME280;42885;49.754;18.636;2022-07-23T00:35:44;98375.75;;;19.74;100.00
56992;BME280;42885;49.754;18.636;2022-07-23T00:38:33;98377.45;;;19.65;100.00
56992;BME280;42885;49.754;18.636;2022-07-23T00:41:23;98378.68;;;19.71;100.00
56992;BME280;42885;49.754;18.636;2022-07-23T00:44:23;98377.95;;;19.79;100.00
56992;BME280;42885;49.754;18.636;2022-07-23T00:47:12;98371.91;;;19.73;100.00
56992;BME280;42885;49.754;18.636;2022-07-23T00:50:01;98367.04;;;19.68;100.00
56992;BME280;42885;49.754;18.636;2022-07-23T00:52:52;98366.00;;;19.79;100.00
56992;BME280;42885;49.754;18.636;2022-07-23T00:55:41;98368.77;;;19.73;100.00
56992;BME280;42885;49.754;18.636;2022-07-23T00:58:31;98370.55;;;19.87;100.00
56992;BME280;42885;49.754;18.636;2022-07-23T01:01:20;98367.80;;;19.60;100.00
56992;BME280;42885;49.754;18.636;2022-07-23T01:04:09;98381.11;;;19.50;100.00
56992;BME280;42885;49.754;18.636;2022-07-23T01:07:00;98373.55;;;19.56;100.00
56992;BME280;42885;49.754;18.636;2022-07-23T01:09:51;98368.25;;;19.56;100.00
56992;BME280;42885;49.754;18.636;2022-07-23T01:12:40;98368.88;;;19.67;100.00
56992;BME280;42885;49.754;18.636;2022-07-23T01:15:29;98362.41;;;19.70;100.00
56992;BME280;42885;49.754;18.636;2022-07-23T01:18:18;98367.63;;;19.62;100.00
56992;BME280;42885;49.754;18.636;2022-07-23T01:21:11;98364.71;;;19.51;100.00
56992;BME280;42885;49.754;18.636;2022-07-23T01:24:01;98359.54;;;19.49;100.00
56992;BME280;42885;49.754;18.636;2022-07-23T01:26:53;98358.56;;;19.36;100.00
56992;BME280;42885;49.754;18.636;2022-07-23T01:29:42;98359.10;;;19.40;100.00
56992;BME280;42885;49.754;18.636;2022-07-23T01:32:32;98366.25;;;19.30;100.00
56992;BME280;42885;49.754;18.636;2022-07-23T01:35:22;98365.66;;;19.22;100.00
56992;BME280;42885;49.754;18.636;2022-07-23T01:38:12;98361.10;;;19.14;100.00
56992;BME280;42885;49.754;18.636;2022-07-23T01:41:01;98361.78;;;19.16;100.00
56992;BME280;42885;49.754;18.636;2022-07-23T01:43:52;98364.31;;;19.32;100.00
56992;BME280;42885;49.754;18.636;2022-07-23T01:46:42;98365.33;;;19.21;100.00
56992;BME280;42885;49.754;18.636;2022-07-23T01:49:31;98359.41;;;19.13;100.00
56992;BME280;42885;49.754;18.636;2022-07-23T01:52:36;98358.56;;;19.22;100.00
56992;BME280;42885;49.754;18.636;2022-07-23T01:55:26;98344.23;;;19.19;100.00
56992;BME280;42885;49.754;18.636;2022-07-23T01:58:16;98352.36;;;19.18;100.00
56992;BME280;42885;49.754;18.636;2022-07-23T02:01:05;98342.53;;;19.14;100.00
56992;BME280;42885;49.754;18.636;2022-07-23T02:03:54;98347.78;;;19.24;100.00
56992;BME280;42885;49.754;18.636;2022-07-23T02:06:43;98349.71;;;19.18;100.00
56992;BME280;42885;49.754;18.636;2022-07-23T02:09:32;98342.98;;;19.23;100.00
56992;BME280;42885;49.754;18.636;2022-07-23T02:12:23;98353.48;;;18.81;100.00
56992;BME280;42885;49.754;18.636;2022-07-23T02:15:12;98355.77;;;18.66;100.00
56992;BME280;42885;49.754;18.636;2022-07-23T02:18:02;98354.09;;;18.65;100.00
56992;BME280;42885;49.754;18.636;2022-07-23T02:20:52;98353.59;;;18.90;100.00
56992;BME280;42885;49.754;18.636;2022-07-23T02:23:41;98352.52;;;18.96;100.00
56992;BME280;42885;49.754;18.636;2022-07-23T02:26:30;98351.45;;;18.89;100.00
56992;BME280;42885;49.754;18.636;2022-07-23T02:29:22;98344.81;;;18.65;100.00
56992;BME280;42885;49.754;18.636;2022-07-23T02:32:11;98347.82;;;18.90;100.00
56992;BME280;42885;49.754;18.636;2022-07-23T02:35:00;98353.98;;;18.81;100.00
56992;BME280;42885;49.754;18.636;2022-07-23T02:37:50;98348.83;;;18.69;100.00
56992;BME280;42885;49.754;18.636;2022-07-23T02:40:40;98350.20;;;18.60;100.00
56992;BME280;42885;49.754;18.636;2022-07-23T02:43:30;98352.86;;;18.50;100.00
56992;BME280;42885;49.754;18.636;2022-07-23T02:46:19;98342.47;;;18.42;100.00
56992;BME280;42885;49.754;18.636;2022-07-23T02:49:08;98351.55;;;18.10;100.00
56992;BME280;42885;49.754;18.636;2022-07-23T02:51:57;98351.69;;;18.19;100.00
56992;BME280;42885;49.754;18.636;2022-07-23T02:54:47;98353.28;;;18.25;100.00
56992;BME280;42885;49.754;18.636;2022-07-23T02:57:37;98347.21;;;18.29;100.00
56992;BME280;42885;49.754;18.636;2022-07-23T03:00:26;98341.41;;;18.49;100.00
56992;BME280;42885;49.754;18.636;2022-07-23T03:03:16;98343.96;;;18.31;100.00
56992;BME280;42885;49.754;18.636;2022-07-23T03:06:05;98337.13;;;18.19;100.00
56992;BME280;42885;49.754;18.636;2022-07-23T03:08:56;98342.77;;;18.29;100.00
56992;BME280;42885;49.754;18.636;2022-07-23T03:11:45;98350.49;;;18.17;100.00
56992;BME280;42885;49.754;18.636;2022-07-23T03:14:34;98348.47;;;18.05;100.00
56992;BME280;42885;49.754;18.636;2022-07-23T03:17:24;98345.97;;;18.23;100.00
56992;BME280;42885;49.754;18.636;2022-07-23T03:20:13;98344.38;;;18.16;100.00
56992;BME280;42885;49.754;18.636;2022-07-23T03:23:03;98348.98;;;18.14;100.00
56992;BME280;42885;49.754;18.636;2022-07-23T03:25:52;98352.86;;;18.30;100.00
56992;BME280;42885;49.754;18.636;2022-07-23T03:28:41;98348.33;;;18.36;100.00
56992;BME280;42885;49.754;18.636;2022-07-23T03:31:31;98353.58;;;18.32;100.00
56992;BME280;42885;49.754;18.636;2022-07-23T03:34:20;98357.39;;;18.43;100.00
56992;BME280;42885;49.754;18.636;2022-07-23T03:37:11;98356.62;;;18.47;100.00
56992;BME280;42885;49.754;18.636;2022-07-23T03:40:01;98353.36;;;18.39;100.00
56992;BME280;42885;49.754;18.636;2022-07-23T03:42:51;98348.36;;;18.26;100.00
56992;BME280;42885;49.754;18.636;2022-07-23T03:45:40;98351.75;;;18.52;100.00
56992;BME280;42885;49.754;18.636;2022-07-23T03:48:30;98350.59;;;18.65;100.00
56992;BME280;42885;49.754;18.636;2022-07-23T03:51:20;98353.22;;;18.21;100.00
56992;BME280;42885;49.754;18.636;2022-07-23T03:54:11;98345.97;;;18.33;100.00
56992;BME280;42885;49.754;18.636;2022-07-23T03:57:00;98345.42;;;18.63;100.00
56992;BME280;42885;49.754;18.636;2022-07-23T03:59:50;98339.47;;;18.75;100.00
56992;BME280;42885;49.754;18.636;2022-07-23T04:02:39;98342.76;;;18.73;100.00
56992;BME280;42885;49.754;18.636;2022-07-23T04:05:28;98340.30;;;18.52;100.00
56992;BME280;42885;49.754;18.636;2022-07-23T04:08:19;98345.47;;;18.53;100.00
56992;BME280;42885;49.754;18.636;2022-07-23T04:11:10;98339.72;;;18.68;100.00
56992;BME280;42885;49.754;18.636;2022-07-23T04:13:59;98336.81;;;18.75;100.00
56992;BME280;42885;49.754;18.636;2022-07-23T04:16:48;98336.33;;;18.85;100.00
56992;BME280;42885;49.754;18.636;2022-07-23T04:19:38;98337.33;;;18.98;100.00
56992;BME280;42885;49.754;18.636;2022-07-23T04:22:32;98333.97;;;19.20;100.00
56992;BME280;42885;49.754;18.636;2022-07-23T04:25:22;98327.70;;;19.35;100.00
56992;BME280;42885;49.754;18.636;2022-07-23T04:28:12;98324.25;;;19.53;100.00
56992;BME280;42885;49.754;18.636;2022-07-23T04:31:03;98330.38;;;19.53;100.00
56992;BME280;42885;49.754;18.636;2022-07-23T04:33:53;98325.16;;;19.62;100.00
56992;BME280;42885;49.754;18.636;2022-07-23T04:36:41;98330.02;;;19.66;100.00
56992;BME280;42885;49.754;18.636;2022-07-23T04:39:30;98324.67;;;20.13;100.00
56992;BME280;42885;49.754;18.636;2022-07-23T04:42:19;98321.19;;;20.30;100.00
56992;BME280;42885;49.754;18.636;2022-07-23T04:45:08;98319.81;;;20.26;100.00
56992;BME280;42885;49.754;18.636;2022-07-23T04:47:58;98319.81;;;20.26;100.00
56992;BME280;42885;49.754;18.636;2022-07-23T04:50:48;98318.27;;;20.42;100.00
56992;BME280;42885;49.754;18.636;2022-07-23T04:53:38;98315.49;;;20.74;100.00
56992;BME280;42885;49.754;18.636;2022-07-23T04:56:28;98313.77;;;20.91;100.00
56992;BME280;42885;49.754;18.636;2022-07-23T04:59:16;98310.00;;;20.98;100.00
56992;BME280;42885;49.754;18.636;2022-07-23T05:02:06;98303.39;;;21.06;100.00
56992;BME280;42885;49.754;18.636;2022-07-23T05:04:55;98296.80;;;21.27;100.00
56992;BME280;42885;49.754;18.636;2022-07-23T05:07:45;98291.84;;;21.36;100.00
56992;BME280;42885;49.754;18.636;2022-07-23T05:10:34;98293.35;;;21.39;100.00
56992;BME280;42885;49.754;18.636;2022-07-23T05:13:24;98290.58;;;21.57;100.00
56992;BME280;42885;49.754;18.636;2022-07-23T05:16:14;98288.30;;;21.79;100.00
56992;BME280;42885;49.754;18.636;2022-07-23T05:19:04;98283.83;;;21.96;100.00
56992;BME280;42885;49.754;18.636;2022-07-23T05:21:54;98288.30;;;21.87;100.00
56992;BME280;42885;49.754;18.636;2022-07-23T05:24:43;98278.84;;;21.84;100.00
56992;BME280;42885;49.754;18.636;2022-07-23T05:27:32;98277.33;;;21.82;100.00
56992;BME280;42885;49.754;18.636;2022-07-23T05:30:22;98272.83;;;21.99;100.00
56992;BME280;42885;49.754;18.636;2022-07-23T05:33:13;98276.02;;;22.07;100.00
56992;BME280;42885;49.754;18.636;2022-07-23T05:36:03;98278.00;;;22.30;100.00
56992;BME280;42885;49.754;18.636;2022-07-23T05:38:54;98277.02;;;22.06;100.00
56992;BME280;42885;49.754;18.636;2022-07-23T05:41:43;98261.84;;;22.14;100.00
56992;BME280;42885;49.754;18.636;2022-07-23T05:44:32;98260.14;;;22.55;100.00
56992;BME280;42885;49.754;18.636;2022-07-23T05:47:21;98267.61;;;22.68;100.00
56992;BME280;42885;49.754;18.636;2022-07-23T05:50:12;98259.88;;;22.86;100.00
56992;BME280;42885;49.754;18.636;2022-07-23T05:53:03;98250.16;;;23.01;100.00
56992;BME280;42885;49.754;18.636;2022-07-23T05:56:08;98247.08;;;23.21;100.00
56992;BME280;42885;49.754;18.636;2022-07-23T05:58:58;98246.28;;;23.44;100.00
56992;BME280;42885;49.754;18.636;2022-07-23T06:01:46;98239.59;;;23.71;100.00
56992;BME280;42885;49.754;18.636;2022-07-23T06:04:37;98238.95;;;23.69;100.00
56992;BME280;42885;49.754;18.636;2022-07-23T06:07:30;98244.84;;;24.03;100.00
56992;BME280;42885;49.754;18.636;2022-07-23T06:10:20;98245.64;;;24.31;100.00
56992;BME280;42885;49.754;18.636;2022-07-23T06:13:11;98244.59;;;24.66;100.00
56992;BME280;42885;49.754;18.636;2022-07-23T06:16:00;98245.14;;;24.81;100.00
56992;BME280;42885;49.754;18.636;2022-07-23T06:18:50;98246.34;;;24.59;100.00
56992;BME280;42885;49.754;18.636;2022-07-23T06:21:40;98244.75;;;24.54;100.00
56992;BME280;42885;49.754;18.636;2022-07-23T06:24:29;98242.78;;;24.78;100.00
56992;BME280;42885;49.754;18.636;2022-07-23T06:27:18;98239.23;;;24.85;100.00
56992;BME280;42885;49.754;18.636;2022-07-23T06:30:09;98242.09;;;24.99;100.00
56992;BME280;42885;49.754;18.636;2022-07-23T06:32:59;98238.98;;;24.91;100.00
56992;BME280;42885;49.754;18.636;2022-07-23T06:35:50;98240.44;;;25.09;100.00
56992;BME280;42885;49.754;18.636;2022-07-23T06:38:40;98234.99;;;25.28;100.00
56992;BME280;42885;49.754;18.636;2022-07-23T06:41:31;98236.94;;;25.45;100.00
56992;BME280;42885;49.754;18.636;2022-07-23T06:44:21;98237.41;;;25.70;100.00
56992;BME280;42885;49.754;18.636;2022-07-23T06:47:11;98230.40;;;25.80;100.00
56992;BME280;42885;49.754;18.636;2022-07-23T06:49:59;98234.45;;;26.09;100.00
56992;BME280;42885;49.754;18.636;2022-07-23T06:52:49;98239.42;;;26.01;100.00
56992;BME280;42885;49.754;18.636;2022-07-23T06:55:38;98244.72;;;26.16;100.00
56992;BME280;42885;49.754;18.636;2022-07-23T06:58:28;98243.56;;;26.54;100.00
56992;BME280;42885;49.754;18.636;2022-07-23T07:01:17;98239.72;;;26.70;100.00
56992;BME280;42885;49.754;18.636;2022-07-23T07:04:06;98242.86;;;26.80;100.00
56992;BME280;42885;49.754;18.636;2022-07-23T07:06:55;98245.84;;;26.92;100.00
56992;BME280;42885;49.754;18.636;2022-07-23T07:09:45;98238.00;;;27.22;100.00
56992;BME280;42885;49.754;18.636;2022-07-23T07:12:35;98233.22;;;27.42;100.00
56992;BME280;42885;49.754;18.636;2022-07-23T07:15:24;98246.15;;;27.11;100.00
56992;BME280;42885;49.754;18.636;2022-07-23T07:18:12;98233.05;;;27.26;100.00
56992;BME280;42885;49.754;18.636;2022-07-23T07:21:01;98234.21;;;27.58;100.00
56992;BME280;42885;49.754;18.636;2022-07-23T07:23:51;98234.85;;;27.81;100.00
56992;BME280;42885;49.754;18.636;2022-07-23T07:26:40;98236.42;;;27.86;100.00
56992;BME280;42885;49.754;18.636;2022-07-23T07:29:30;98232.98;;;27.95;100.00
56992;BME280;42885;49.754;18.636;2022-07-23T07:32:19;98233.62;;;27.83;100.00
56992;BME280;42885;49.754;18.636;2022-07-23T07:35:09;98234.14;;;27.89;100.00
56992;BME280;42885;49.754;18.636;2022-07-23T07:37:59;98236.50;;;27.82;100.00
56992;BME280;42885;49.754;18.636;2022-07-23T07:40:48;98232.98;;;27.68;100.00
56992;BME280;42885;49.754;18.636;2022-07-23T07:43:38;98233.40;;;27.71;100.00
56992;BME280;42885;49.754;18.636;2022-07-23T07:46:28;98234.23;;;28.19;100.00
56992;BME280;42885;49.754;18.636;2022-07-23T07:49:18;98228.85;;;28.33;100.00
56992;BME280;42885;49.754;18.636;2022-07-23T07:52:07;98226.16;;;28.46;100.00
56992;BME280;42885;49.754;18.636;2022-07-23T07:54:56;98224.95;;;28.65;100.00
56992;BME280;42885;49.754;18.636;2022-07-23T07:57:46;98210.52;;;28.52;100.00
56992;BME280;42885;49.754;18.636;2022-07-23T08:00:35;98210.28;;;28.54;100.00
56992;BME280;42885;49.754;18.636;2022-07-23T08:03:25;98211.38;;;28.39;100.00
56992;BME280;42885;49.754;18.636;2022-07-23T08:06:14;98214.23;;;28.44;100.00
56992;BME280;42885;49.754;18.636;2022-07-23T08:09:03;98197.02;;;28.95;100.00
56992;BME280;42885;49.754;18.636;2022-07-23T08:11:52;98192.10;;;28.85;100.00
56992;BME280;42885;49.754;18.636;2022-07-23T08:14:41;98189.47;;;28.95;100.00
56992;BME280;42885;49.754;18.636;2022-07-23T08:17:32;98188.06;;;29.24;100.00
56992;BME280;42885;49.754;18.636;2022-07-23T08:20:21;98191.55;;;29.32;100.00
56992;BME280;42885;49.754;18.636;2022-07-23T08:23:11;98186.39;;;29.62;100.00
56992;BME280;42885;49.754;18.636;2022-07-23T08:26:00;98182.41;;;29.56;100.00
56992;BME280;42885;49.754;18.636;2022-07-23T08:28:55;98189.44;;;29.82;100.00
56992;BME280;42885;49.754;18.636;2022-07-23T08:31:39;98191.39;;;29.84;100.00
56992;BME280;42885;49.754;18.636;2022-07-23T08:34:29;98195.63;;;29.64;100.00
56992;BME280;42885;49.754;18.636;2022-07-23T08:37:18;98192.68;;;30.07;100.00
56992;BME280;42885;49.754;18.636;2022-07-23T08:40:07;98194.41;;;30.11;100.00
56992;BME280;42885;49.754;18.636;2022-07-23T08:42:57;98197.28;;;30.00;100.00
56992;BME280;42885;49.754;18.636;2022-07-23T08:45:48;98195.95;;;30.44;100.00
56992;BME280;42885;49.754;18.636;2022-07-23T08:48:37;98199.92;;;30.50;100.00
56992;BME280;42885;49.754;18.636;2022-07-23T08:51:27;98199.11;;;30.50;100.00
56992;BME280;42885;49.754;18.636;2022-07-23T08:54:17;98199.20;;;30.81;100.00
56992;BME280;42885;49.754;18.636;2022-07-23T08:57:06;98194.87;;;31.10;100.00
56992;BME280;42885;49.754;18.636;2022-07-23T08:59:56;98187.89;;;31.12;96.00
56992;BME280;42885;49.754;18.636;2022-07-23T09:02:47;98188.61;;;30.98;100.00
56992;BME280;42885;49.754;18.636;2022-07-23T09:05:37;98191.70;;;31.23;96.92
56992;BME280;42885;49.754;18.636;2022-07-23T09:08:35;98182.17;;;31.29;87.98
56992;BME280;42885;49.754;18.636;2022-07-23T09:11:25;98186.58;;;31.54;80.08
56992;BME280;42885;49.754;18.636;2022-07-23T09:14:14;98188.77;;;32.00;73.63
56992;BME280;42885;49.754;18.636;2022-07-23T09:17:16;98189.83;;;31.99;74.81
56992;BME280;42885;49.754;18.636;2022-07-23T09:20:14;98186.83;;;31.86;66.86
56992;BME280;42885;49.754;18.636;2022-07-23T09:23:03;98184.41;;;32.23;61.11
56992;BME280;42885;49.754;18.636;2022-07-23T09:25:53;98178.88;;;32.41;57.99
56992;BME280;42885;49.754;18.636;2022-07-23T09:29:06;98175.19;;;32.86;55.17
56992;BME280;42885;49.754;18.636;2022-07-23T09:32:00;98171.17;;;33.01;54.29
56992;BME280;42885;49.754;18.636;2022-07-23T09:34:50;98180.50;;;33.22;51.30
56992;BME280;42885;49.754;18.636;2022-07-23T09:37:39;98171.69;;;33.00;54.32
56992;BME280;42885;49.754;18.636;2022-07-23T09:40:29;98171.69;;;33.00;54.32
56992;BME280;42885;49.754;18.636;2022-07-23T09:43:28;98176.38;;;33.05;52.69
56992;BME280;42885;49.754;18.636;2022-07-23T09:46:25;98177.16;;;32.76;49.34
56992;BME280;42885;49.754;18.636;2022-07-23T09:49:21;98179.47;;;32.56;51.78
56992;BME280;42885;49.754;18.636;2022-07-23T09:52:11;98175.61;;;32.66;50.13
56992;BME280;42885;49.754;18.636;2022-07-23T09:55:02;98179.05;;;32.90;49.67
56992;BME280;42885;49.754;18.636;2022-07-23T09:57:51;98175.03;;;33.05;47.96
56992;BME280;42885;49.754;18.636;2022-07-23T10:00:42;98168.31;;;32.81;47.53
56992;BME280;42885;49.754;18.636;2022-07-23T10:03:33;98173.88;;;33.01;47.83
56992;BME280;42885;49.754;18.636;2022-07-23T10:06:34;98164.97;;;33.03;46.18
56992;BME280;42885;49.754;18.636;2022-07-23T10:09:41;98161.19;;;33.04;47.50
56992;BME280;42885;49.754;18.636;2022-07-23T10:12:38;98158.03;;;33.24;46.20
56992;BME280;42885;49.754;18.636;2022-07-23T10:15:41;98157.01;;;33.59;45.47
56992;BME280;42885;49.754;18.636;2022-07-23T10:18:31;98148.66;;;33.32;49.91
56992;BME280;42885;49.754;18.636;2022-07-23T10:21:30;98151.47;;;33.05;49.23
56992;BME280;42885;49.754;18.636;2022-07-23T10:34:39;98138.70;;;33.35;44.40
56992;BME280;42885;49.754;18.636;2022-07-23T10:37:42;98134.98;;;33.73;43.93
56992;BME280;42885;49.754;18.636;2022-07-23T10:40:31;98129.89;;;34.13;42.60
56992;BME280;42885;49.754;18.636;2022-07-23T10:43:21;98132.10;;;34.39;44.89
56992;BME280;42885;49.754;18.636;2022-07-23T10:46:26;98134.82;;;34.39;43.08
56992;BME280;42885;49.754;18.636;2022-07-23T10:49:28;98129.05;;;34.77;41.43
56992;BME280;42885;49.754;18.636;2022-07-23T10:58:04;98127.83;;;34.90;44.34
56992;BME280;42885;49.754;18.636;2022-07-23T11:00:54;98118.80;;;35.09;42.84
56992;BME280;42885;49.754;18.636;2022-07-23T11:03:55;98120.27;;;34.95;39.47
56992;BME280;42885;49.754;18.636;2022-07-23T11:09:45;98113.89;;;34.84;38.45
56992;BME280;42885;49.754;18.636;2022-07-23T11:12:36;98113.77;;;34.71;40.61
56992;BME280;42885;49.754;18.636;2022-07-23T11:15:25;98113.33;;;34.15;41.17
56992;BME280;42885;49.754;18.636;2022-07-23T11:18:15;98105.70;;;34.12;41.25
56992;BME280;42885;49.754;18.636;2022-07-23T11:24:17;98093.66;;;35.27;38.97
56992;BME280;42885;49.754;18.636;2022-07-23T11:27:07;98099.81;;;35.85;39.05
56992;BME280;42885;49.754;18.636;2022-07-23T11:29:57;98098.95;;;35.77;38.09
56992;BME280;42885;49.754;18.636;2022-07-23T11:32:46;98090.06;;;35.19;37.23
56992;BME280;42885;49.754;18.636;2022-07-23T11:35:37;98087.37;;;36.00;36.54
56992;BME280;42885;49.754;18.636;2022-07-23T11:38:27;98081.31;;;35.49;37.70
56992;BME280;42885;49.754;18.636;2022-07-23T11:41:18;98092.93;;;35.39;38.53
56992;BME280;42885;49.754;18.636;2022-07-23T11:44:29;98088.39;;;35.88;37.50
56992;BME280;42885;49.754;18.636;2022-07-23T11:47:14;98080.91;;;36.11;36.70
56992;BME280;42885;49.754;18.636;2022-07-23T11:50:05;98070.41;;;36.43;35.06
56992;BME280;42885;49.754;18.636;2022-07-23T11:52:55;98065.89;;;36.88;35.76
56992;BME280;42885;49.754;18.636;2022-07-23T11:55:44;98067.27;;;36.93;34.32
56992;BME280;42885;49.754;18.636;2022-07-23T11:58:33;98057.20;;;37.12;34.42
56992;BME280;42885;49.754;18.636;2022-07-23T12:01:23;98047.67;;;37.19;34.03
56992;BME280;42885;49.754;18.636;2022-07-23T12:04:12;98044.41;;;37.12;33.79
56992;BME280;42885;49.754;18.636;2022-07-23T12:07:02;98046.58;;;37.18;34.40
56992;BME280;42885;49.754;18.636;2022-07-23T12:09:51;98035.39;;;37.12;33.86
56992;BME280;42885;49.754;18.636;2022-07-23T12:12:49;98055.33;;;35.31;36.24
56992;BME280;42885;49.754;18.636;2022-07-23T12:15:43;98051.52;;;35.27;36.92
56992;BME280;42885;49.754;18.636;2022-07-23T12:18:32;98042.03;;;36.29;35.82
56992;BME280;42885;49.754;18.636;2022-07-23T12:21:21;98038.91;;;36.97;34.04
56992;BME280;42885;49.754;18.636;2022-07-23T12:24:10;98039.02;;;36.20;34.99
56992;BME280;42885;49.754;18.636;2022-07-23T12:27:08;98036.75;;;37.32;34.48
56992;BME280;42885;49.754;18.636;2022-07-23T12:29:57;98037.80;;;37.68;33.88
56992;BME280;42885;49.754;18.636;2022-07-23T12:32:49;98030.73;;;36.94;33.78
56992;BME280;42885;49.754;18.636;2022-07-23T12:35:44;98038.36;;;37.39;36.06
56992;BME280;42885;49.754;18.636;2022-07-23T12:38:47;98029.91;;;37.38;34.39
56992;BME280;42885;49.754;18.636;2022-07-23T12:41:53;98024.47;;;37.07;33.50
56992;BME280;42885;49.754;18.636;2022-07-23T12:45:07;98016.84;;;37.14;33.73
56992;BME280;42885;49.754;18.636;2022-07-23T12:48:00;98019.85;;;37.10;36.66
56992;BME280;42885;49.754;18.636;2022-07-23T12:51:04;98013.28;;;38.26;33.37
56992;BME280;42885;49.754;18.636;2022-07-23T12:53:49;98012.70;;;37.40;33.88
56992;BME280;42885;49.754;18.636;2022-07-23T12:56:40;98016.34;;;38.17;33.73
56992;BME280;42885;49.754;18.636;2022-07-23T12:59:31;98014.52;;;38.47;30.97
56992;BME280;42885;49.754;18.636;2022-07-23T13:02:20;98014.92;;;38.72;30.58
56992;BME280;42885;49.754;18.636;2022-07-23T13:05:10;98002.58;;;39.12;30.37
56992;BME280;42885;49.754;18.636;2022-07-23T13:07:59;98010.23;;;37.59;32.63
56992;BME280;42885;49.754;18.636;2022-07-23T13:10:50;98003.71;;;38.28;31.25
56992;BME280;42885;49.754;18.636;2022-07-23T13:13:41;98003.17;;;39.36;31.19
56992;BME280;42885;49.754;18.636;2022-07-23T13:16:31;98001.04;;;39.03;31.03
56992;BME280;42885;49.754;18.636;2022-07-23T13:19:21;97997.11;;;40.15;31.41
56992;BME280;42885;49.754;18.636;2022-07-23T13:22:12;97995.34;;;40.02;29.76
56992;BME280;42885;49.754;18.636;2022-07-23T13:25:01;97990.86;;;39.90;29.27
56992;BME280;42885;49.754;18.636;2022-07-23T13:27:50;97990.83;;;37.71;31.55
56992;BME280;42885;49.754;18.636;2022-07-23T13:30:41;97986.77;;;36.39;34.45
56992;BME280;42885;49.754;18.636;2022-07-23T13:33:30;97994.92;;;36.28;34.89
56992;BME280;42885;49.754;18.636;2022-07-23T13:36:20;97991.94;;;36.43;34.78
56992;BME280;42885;49.754;18.636;2022-07-23T13:39:10;97987.52;;;35.57;37.93
56992;BME280;42885;49.754;18.636;2022-07-23T13:42:00;97983.59;;;35.40;38.76
56992;BME280;42885;49.754;18.636;2022-07-23T13:44:49;97986.36;;;35.07;38.58
56992;BME280;42885;49.754;18.636;2022-07-23T13:47:38;97979.73;;;34.98;37.85
56992;BME280;42885;49.754;18.636;2022-07-23T13:50:28;97978.95;;;35.00;37.87
56992;BME280;42885;49.754;18.636;2022-07-23T13:53:20;97975.92;;;37.22;34.24
56992;BME280;42885;49.754;18.636;2022-07-23T13:56:09;97972.06;;;36.50;35.29
56992;BME280;42885;49.754;18.636;2022-07-23T13:58:59;97985.03;;;35.53;36.60
56992;BME280;42885;49.754;18.636;2022-07-23T14:01:49;97981.17;;;34.73;43.73
56992;BME280;42885;49.754;18.636;2022-07-23T14:04:38;97983.80;;;33.68;43.46
56992;BME280;42885;49.754;18.636;2022-07-23T14:07:28;97975.82;;;33.81;42.19
56992;BME280;42885;49.754;18.636;2022-07-23T14:10:18;97979.92;;;33.44;43.97
56992;BME280;42885;49.754;18.636;2022-07-23T14:13:08;97978.70;;;32.98;46.21
56992;BME280;42885;49.754;18.636;2022-07-23T14:15:57;97972.78;;;32.87;47.52
56992;BME280;42885;49.754;18.636;2022-07-23T14:18:47;97984.02;;;32.78;45.35
56992;BME280;42885;49.754;18.636;2022-07-23T14:21:35;97983.11;;;33.21;43.61
56992;BME280;42885;49.754;18.636;2022-07-23T14:24:25;97984.13;;;32.52;44.67
56992;BME280;42885;49.754;18.636;2022-07-23T14:27:14;97976.89;;;31.99;49.92
56992;BME280;42885;49.754;18.636;2022-07-23T14:30:05;97975.25;;;31.98;49.56
56992;BME280;42885;49.754;18.636;2022-07-23T14:32:58;97986.77;;;31.55;49.47
56992;BME280;42885;49.754;18.636;2022-07-23T14:35:48;97998.86;;;31.65;51.12
56992;BME280;42885;49.754;18.636;2022-07-23T14:38:37;98011.04;;;31.41;58.86
56992;BME280;42885;49.754;18.636;2022-07-23T14:41:26;98029.06;;;30.31;100.00
56992;BME280;42885;49.754;18.636;2022-07-23T14:44:15;98039.12;;;29.26;100.00
56992;BME280;42885;49.754;18.636;2022-07-23T14:47:08;98035.58;;;28.46;100.00
56992;BME280;42885;49.754;18.636;2022-07-23T14:49:57;98040.80;;;28.56;100.00
56992;BME280;42885;49.754;18.636;2022-07-23T14:52:47;98041.00;;;28.39;100.00
56992;BME280;42885;49.754;18.636;2022-07-23T14:55:36;98049.67;;;28.41;100.00
56992;BME280;42885;49.754;18.636;2022-07-23T14:58:25;98055.98;;;28.83;100.00
56992;BME280;42885;49.754;18.636;2022-07-23T15:01:14;98053.59;;;30.91;100.00
56992;BME280;42885;49.754;18.636;2022-07-23T15:04:04;98051.03;;;30.35;100.00
56992;BME280;42885;49.754;18.636;2022-07-23T15:06:53;98062.57;;;30.24;100.00